Saltillo, México

1:41 PM CST en Diciembre 03, 2016 (GMT -0600)
Artesillas | | Change Station

Alt 6627 ft 25.20 °N, 100.71 °W | Updated 20 minutes ago

Mostly Cloudy
Muy nublado
64.1 ° F
Sensación térmica 64.1 ° F
N
9.0
Viento Variable Viento desde ESE
Gusts 15.0 mph

Hoy
Alta -- | Baja -- ° F
--% Posibilidad de precipitaciones
Ayer
Alta -- | Baja -- ° F
Precip. -- pul
Presión 29.93 pul
Visibilidad 7.0 Millas
Nubes Muy nublado 5000 ft
Nublado 10000 ft
Punto de rocío 49 ° F
Humedad 59%
Precipitaciones 0.00 pul
Espesor de la nieve No disponible.
7:13 AM 5:52 PM
Creciente, 16% visible
METAR MMIO 031940Z 36005KT 7SM BKN050 OVC100 20/14 A2993 RMK 8/53/ BINOVC HZY
Presión 29.93 pul
Visibilidad 7.0 Millas
Nubes Muy nublado 5000 ft
Nublado 10000 ft
Punto de rocío 49 ° F
Humedad 59%
Precipitaciones 0.00 pul
Espesor de la nieve No disponible.
7:13 AM 5:52 PM
Creciente, 16% visible
METAR MMIO 031940Z 36005KT 7SM BKN050 OVC100 20/14 A2993 RMK 8/53/ BINOVC HZY

10-Day Weather Forecast

No radar image for this location.
×

Almanac

Astronomía

Dec. 03, 2016 Salida Puesta
Hora real
Crepúsculo civil
Crepúsculo náutico
Crepúsculo astronómico
Luna
Horas de luz
Horas de luz
Tomorrow will be .
, % of the Moon is Illuminated

Extremos de hoy

Máximos del país Bajas del país

Community

WunderPhotos

Upload Photos

1,955,481 ¡fotos cargadas!

WunderBlog® & News

Nearby

Calidad del aire

  Calidad del aire Índice AQ Contaminante
Not available.

Grosos de nieve

Estación Profundido Altura

Actividad de terremotos

Ciudad Distance Mag. Tiempo y dato
Magnitud mínima muestra es 2,5.

Temperaturas de aguas costeras

Lugar Temperatura

Stations

Estaciones meteorológicas cercanas

Ubicación de la estación Temp. Vientos helados Punto de rocío Humedad Viento Precip. Alt Actualizado Tipo